Time;durP1;ratioP1;P1;durP2;ratioP2;P2;SDS_P1;SDS_P2;PMS_P1;PMS_P2;Temp;Humidity;BMP_temperature;BMP_pressure;BME280_temperature;BME280_humidity;BME280_pressure;Samples;Min_cycle;Max_cycle;Signal;HPM_P1;HPM_P2
2022/05/02 00:02:17;;;;;;;11.82;10.55;;;5.70;99.90;;;;;;4901785;28;89715;-33
2022/05/02 00:04:43;;;;;;;11.85;10.65;;;5.60;99.90;;;;;;4902128;28;90326;-33
2022/05/02 00:07:09;;;;;;;13.07;11.27;;;5.60;99.90;;;;;;4902005;28;89665;-33
2022/05/02 00:09:34;;;;;;;14.75;10.90;;;5.70;99.90;;;;;;4902478;28;89442;-38
2022/05/02 00:12:00;;;;;;;14.27;10.73;;;5.70;99.90;;;;;;4901014;28;89787;-35
2022/05/02 00:14:26;;;;;;;11.88;9.75;;;5.70;99.90;;;;;;4901601;28;90360;-38
2022/05/02 00:16:51;;;;;;;14.60;10.43;;;5.60;99.90;;;;;;4902295;28;89550;-33
2022/05/02 00:19:17;;;;;;;15.75;11.63;;;5.60;99.90;;;;;;4901893;28;91648;-34
2022/05/02 00:21:42;;;;;;;17.08;12.10;;;5.60;99.90;;;;;;4901690;28;88239;-34
2022/05/02 00:24:09;;;;;;;13.32;11.98;;;5.50;99.90;;;;;;4901522;28;90613;-33
2022/05/02 00:26:35;;;;;;;13.95;12.50;;;5.50;99.90;;;;;;4901794;28;90041;-36
2022/05/02 00:29:01;;;;;;;15.73;12.52;;;5.40;99.90;;;;;;4902082;28;90152;-32
2022/05/02 00:31:26;;;;;;;19.95;14.10;;;5.40;99.90;;;;;;4901826;28;89436;-34
2022/05/02 00:33:52;;;;;;;15.40;12.15;;;5.30;99.90;;;;;;4901702;28;90022;-36
2022/05/02 00:36:45;;;;;;;12.85;11.73;;;5.30;99.90;;;;;;4900751;28;90612;-34
2022/05/02 00:39:11;;;;;;;14.23;12.73;;;5.20;99.90;;;;;;4860407;28;90523;-38
2022/05/02 00:41:37;;;;;;;15.38;12.85;;;5.20;99.90;;;;;;4863142;28;88659;-35
2022/05/02 00:44:02;;;;;;;16.88;13.43;;;5.20;99.90;;;;;;4863279;28;90180;-37
2022/05/02 00:46:28;;;;;;;15.60;13.38;;;5.20;99.90;;;;;;4863415;28;89720;-34
2022/05/02 00:48:54;;;;;;;14.48;12.85;;;5.20;99.90;;;;;;4862959;28;89485;-33
2022/05/02 00:51:20;;;;;;;17.73;13.27;;;5.20;99.90;;;;;;4864063;28;88839;-37
2022/05/02 00:53:48;;;;;;;16.67;12.95;;;5.20;99.90;;;;;;4862997;28;90152;-33
2022/05/02 00:56:16;;;;;;;16.67;13.95;;;5.20;99.90;;;;;;4863064;28;88514;-34
2022/05/02 00:58:42;;;;;;;15.03;12.93;;;5.10;99.90;;;;;;4862243;28;89463;-36
2022/05/02 01:01:08;;;;;;;15.35;12.25;;;5.10;99.90;;;;;;4862978;28;87977;-35
2022/05/02 01:03:34;;;;;;;15.85;14.25;;;5.10;99.90;;;;;;4863026;28;90487;-34
2022/05/02 01:08:45;;;;;;;21.55;14.02;;;5.00;99.90;;;;;;4863177;28;90374;-33
2022/05/02 01:11:11;;;;;;;18.45;14.48;;;4.90;99.90;;;;;;4862580;28;89334;-34
2022/05/02 01:13:44;;;;;;;22.88;13.82;;;4.90;99.90;;;;;;4863016;28;89137;-33
2022/05/02 01:16:14;;;;;;;14.70;13.30;;;4.90;99.90;;;;;;4862984;28;89767;-33
2022/05/02 01:18:41;;;;;;;15.32;13.82;;;4.90;99.90;;;;;;4862587;28;89943;-33
2022/05/02 01:21:12;;;;;;;14.77;13.32;;;4.80;99.90;;;;;;4863532;28;89884;-34
2022/05/02 01:23:38;;;;;;;13.30;12.02;;;4.80;99.90;;;;;;4861634;28;89227;-37
2022/05/02 01:26:03;;;;;;;16.35;14.65;;;4.80;99.90;;;;;;4862583;28;90784;-35
2022/05/02 01:28:29;;;;;;;15.25;13.50;;;4.80;99.90;;;;;;4862359;28;90952;-33
2022/05/02 01:30:55;;;;;;;16.92;13.52;;;4.70;99.90;;;;;;4863090;28;89423;-37
2022/05/02 01:33:21;;;;;;;15.27;13.48;;;4.70;99.90;;;;;;4862052;28;90213;-35
2022/05/02 01:35:46;;;;;;;17.95;13.93;;;4.70;99.90;;;;;;4861646;28;89545;-38
2022/05/02 01:38:13;;;;;;;16.52;13.52;;;4.70;99.90;;;;;;4875863;28;90098;-33
2022/05/02 01:40:38;;;;;;;15.40;12.88;;;4.70;99.90;;;;;;4881231;28;89128;-32
2022/05/02 01:43:04;;;;;;;17.92;15.40;;;4.80;99.90;;;;;;4882258;28;90575;-34
2022/05/02 01:45:30;;;;;;;17.40;14.23;;;4.80;99.90;;;;;;4881441;28;89603;-33
2022/05/02 01:47:55;;;;;;;16.58;13.93;;;4.80;99.90;;;;;;4880680;28;89465;-35
2022/05/02 01:50:21;;;;;;;16.27;13.32;;;4.80;99.90;;;;;;4881460;28;89540;-32
2022/05/02 01:52:46;;;;;;;19.15;15.00;;;4.80;99.90;;;;;;4881075;28;90242;-34
2022/05/02 01:55:12;;;;;;;15.75;13.52;;;4.80;99.90;;;;;;4864351;28;89649;-35
2022/05/02 01:57:37;;;;;;;15.60;14.00;;;4.80;99.90;;;;;;4880849;28;89957;-37
2022/05/02 02:00:04;;;;;;;15.38;13.88;;;4.80;99.90;;;;;;4881259;28;88738;-36
2022/05/02 02:02:29;;;;;;;16.27;14.40;;;4.80;99.90;;;;;;4880984;28;90598;-34
2022/05/02 02:07:40;;;;;;;17.45;14.77;;;4.70;99.90;;;;;;4881409;28;90336;-34
2022/05/02 02:10:06;;;;;;;16.55;14.90;;;4.60;99.90;;;;;;4881101;28;88820;-34
2022/05/02 02:12:32;;;;;;;17.33;15.18;;;4.60;99.90;;;;;;4881421;28;90455;-37
2022/05/02 02:14:58;;;;;;;17.55;15.80;;;4.60;99.90;;;;;;4880919;28;90414;-33
2022/05/02 02:17:23;;;;;;;22.48;15.65;;;4.50;99.90;;;;;;4880475;28;90532;-33
2022/05/02 02:19:49;;;;;;;21.48;15.63;;;4.50;99.90;;;;;;4881019;28;89161;-33
2022/05/02 02:22:18;;;;;;;18.30;16.50;;;4.50;99.90;;;;;;4880587;28;90112;-34
2022/05/02 02:24:48;;;;;;;19.70;14.70;;;4.40;99.90;;;;;;4880605;28;89330;-33
2022/05/02 02:27:14;;;;;;;20.60;18.50;;;4.40;99.90;;;;;;4881050;28;88556;-33
2022/05/02 02:29:40;;;;;;;19.25;17.20;;;4.30;99.90;;;;;;4881037;28;89183;-35
2022/05/02 02:32:05;;;;;;;18.27;15.77;;;4.30;99.90;;;;;;4880863;28;89099;-34
2022/05/02 02:34:31;;;;;;;19.55;17.55;;;4.20;99.90;;;;;;4880865;28;89289;-33
2022/05/02 02:36:57;;;;;;;19.20;16.25;;;4.30;99.90;;;;;;4880285;28;91803;-33
2022/05/02 02:39:23;;;;;;;16.00;14.35;;;4.30;99.90;;;;;;4880054;28;89496;-35
2022/05/02 02:41:48;;;;;;;17.83;16.02;;;4.20;99.90;;;;;;4880938;28;90352;-34
2022/05/02 02:44:14;;;;;;;18.45;16.23;;;4.20;99.90;;;;;;4881097;28;94224;-34
2022/05/02 02:46:39;;;;;;;17.42;15.63;;;4.20;99.90;;;;;;4884281;28;88976;-34
2022/05/02 02:49:05;;;;;;;19.35;17.08;;;4.20;99.90;;;;;;4884838;28;89455;-33
2022/05/02 02:51:30;;;;;;;17.35;15.43;;;4.20;99.90;;;;;;4883616;28;90193;-37
2022/05/02 02:53:56;;;;;;;18.63;16.63;;;4.20;99.90;;;;;;4883955;28;89877;-32
2022/05/02 02:56:22;;;;;;;17.13;14.93;;;4.20;99.90;;;;;;4883622;28;89222;-33
2022/05/02 02:58:47;;;;;;;17.80;15.25;;;4.20;99.90;;;;;;4884303;28;89964;-34
2022/05/02 03:01:13;;;;;;;18.30;16.50;;;4.20;99.90;;;;;;4883715;28;90449;-34
2022/05/02 03:03:39;;;;;;;18.20;16.40;;;4.10;99.90;;;;;;4882944;28;90491;-37
2022/05/02 03:06:05;;;;;;;18.10;16.23;;;4.00;99.90;;;;;;4883663;28;90487;-34
2022/05/02 03:08:41;;;;;;;22.00;16.60;;;4.00;99.90;;;;;;4883146;28;88962;-33
2022/05/02 03:11:08;;;;;;;21.63;19.30;;;3.90;99.90;;;;;;4883558;28;90144;-33
2022/05/02 03:13:34;;;;;;;19.00;16.98;;;3.90;99.90;;;;;;4883765;28;89752;-34
2022/05/02 03:16:00;;;;;;;19.42;17.30;;;3.80;99.90;;;;;;4883061;28;89150;-32
2022/05/02 03:18:25;;;;;;;20.60;17.52;;;3.90;99.90;;;;;;4883676;28;88515;-35
2022/05/02 03:20:51;;;;;;;21.33;19.10;;;3.90;99.90;;;;;;4882771;28;91336;-35
2022/05/02 03:23:17;;;;;;;27.65;20.15;;;4.00;99.90;;;;;;4883993;28;89298;-32
2022/05/02 03:25:43;;;;;;;21.75;18.42;;;4.00;99.90;;;;;;4883119;28;89452;-34
2022/05/02 03:28:08;;;;;;;21.63;17.52;;;4.00;99.90;;;;;;4882701;28;89586;-34
2022/05/02 03:30:34;;;;;;;21.77;19.08;;;4.00;99.90;;;;;;4883647;28;90479;-36
2022/05/02 03:33:01;;;;;;;22.58;19.98;;;4.00;99.90;;;;;;4883140;28;90040;-32
2022/05/02 03:35:26;;;;;;;22.15;19.20;;;4.00;99.90;;;;;;4883584;28;88628;-37
2022/05/02 03:37:52;;;;;;;25.05;21.50;;;4.00;99.90;;;;;;4882213;28;88789;-34
2022/05/02 03:40:18;;;;;;;26.13;21.38;;;4.00;99.90;;;;;;4882812;28;90450;-37
2022/05/02 03:42:43;;;;;;;24.73;20.35;;;4.00;99.90;;;;;;4882699;28;92426;-34
2022/05/02 03:45:09;;;;;;;25.38;20.17;;;4.00;99.90;;;;;;4883597;28;89926;-32
2022/05/02 03:47:34;;;;;;;26.25;21.50;;;4.00;99.90;;;;;;4883291;28;89258;-36
2022/05/02 03:50:00;;;;;;;24.35;21.38;;;4.00;99.90;;;;;;4882674;28;89777;-32
2022/05/02 03:52:26;;;;;;;25.17;21.85;;;4.00;99.90;;;;;;4882131;28;90699;-38
2022/05/02 03:54:51;;;;;;;27.92;20.58;;;4.00;99.90;;;;;;4882037;28;90637;-34
2022/05/02 03:57:17;;;;;;;25.42;22.27;;;3.90;99.90;;;;;;4882653;28;88799;-37
2022/05/02 03:59:43;;;;;;;22.17;19.83;;;3.90;99.90;;;;;;4883038;28;89597;-34
2022/05/02 04:02:08;;;;;;;22.42;18.90;;;3.90;99.90;;;;;;4882775;28;90051;-34
2022/05/02 04:04:34;;;;;;;23.08;19.58;;;3.90;99.90;;;;;;4882663;28;89732;-35
2022/05/02 04:06:59;;;;;;;21.48;19.25;;;3.90;99.90;;;;;;4882086;28;89100;-36
2022/05/02 04:09:25;;;;;;;26.02;20.00;;;3.90;99.90;;;;;;4882403;28;91890;-36
2022/05/02 04:11:51;;;;;;;26.92;22.25;;;3.90;99.90;;;;;;4881902;28;89547;-35
2022/05/02 04:14:16;;;;;;;25.52;21.65;;;3.90;99.90;;;;;;4882131;28;89482;-34
2022/05/02 04:16:42;;;;;;;28.38;21.20;;;3.90;99.90;;;;;;4882324;28;89965;-35
2022/05/02 04:19:07;;;;;;;24.48;21.30;;;3.90;99.90;;;;;;4882317;28;90357;-34
2022/05/02 04:21:33;;;;;;;27.52;22.08;;;3.90;99.90;;;;;;4882875;28;90250;-33
2022/05/02 04:23:59;;;;;;;28.05;21.77;;;4.00;99.90;;;;;;4882033;28;89856;-31
2022/05/02 04:26:25;;;;;;;26.38;22.58;;;4.10;99.90;;;;;;4882496;28;89922;-32
2022/05/02 04:28:51;;;;;;;24.40;21.42;;;4.20;99.90;;;;;;4882715;28;90321;-31
2022/05/02 04:31:16;;;;;;;24.90;21.77;;;4.40;99.90;;;;;;4882212;28;89442;-33
2022/05/02 04:33:42;;;;;;;25.90;21.85;;;4.50;99.90;;;;;;4882557;28;89560;-34
2022/05/02 04:36:07;;;;;;;25.02;22.35;;;4.40;99.90;;;;;;4881620;28;89273;-35
2022/05/02 04:38:33;;;;;;;30.27;22.98;;;4.40;99.90;;;;;;4882368;28;90504;-33
2022/05/02 04:40:59;;;;;;;24.85;21.45;;;4.60;99.90;;;;;;4881505;28;91646;-35
2022/05/02 04:43:25;;;;;;;23.58;20.65;;;4.70;99.90;;;;;;4881737;28;90982;-37
2022/05/02 04:45:51;;;;;;;27.50;22.75;;;4.80;99.90;;;;;;4882313;28;88049;-34
2022/05/02 04:48:17;;;;;;;36.17;23.85;;;4.90;99.90;;;;;;4882056;28;90419;-33
2022/05/02 04:50:42;;;;;;;24.50;21.20;;;4.90;99.90;;;;;;4882327;28;88410;-34
2022/05/02 04:53:08;;;;;;;27.13;24.23;;;5.10;99.90;;;;;;4882054;28;89460;-35
2022/05/02 04:55:34;;;;;;;30.25;22.70;;;5.20;99.90;;;;;;4882556;28;89253;-35
2022/05/02 04:57:59;;;;;;;28.60;22.73;;;5.40;99.90;;;;;;4882560;28;90049;-36
2022/05/02 05:00:25;;;;;;;28.77;24.30;;;5.60;99.90;;;;;;4881827;28;89735;-33
2022/05/02 05:02:51;;;;;;;24.73;22.13;;;5.90;99.90;;;;;;4881788;28;89559;-32
2022/05/02 05:05:17;;;;;;;22.90;20.33;;;6.30;99.90;;;;;;4880651;28;88976;-37
2022/05/02 05:07:43;;;;;;;24.27;21.77;;;6.60;99.90;;;;;;4879392;28;90520;-34
2022/05/02 05:10:09;;;;;;;26.30;23.00;;;6.40;99.90;;;;;;4882496;28;89912;-33
2022/05/02 05:13:03;;;;;;;26.92;23.83;;;6.30;99.90;;;;;;4880945;28;90039;-34
2022/05/02 05:18:51;;;;;;;26.30;22.13;;;6.10;99.90;;;;;;4882214;28;90163;-34
2022/05/02 05:21:29;;;;;;;26.42;21.80;;;6.20;99.90;;;;;;4881737;28;89733;-36
2022/05/02 05:24:07;;;;;;;25.67;23.08;;;6.40;99.90;;;;;;4882354;28;89967;-38
2022/05/02 05:26:57;;;;;;;;;;;6.60;99.90;;;;;;4882701;28;88749;-32
2022/05/02 05:29:40;;;;;;;24.75;22.15;;;6.60;99.90;;;;;;4881659;28;90330;-36
2022/05/02 05:32:39;;;;;;;24.85;21.60;;;6.70;99.90;;;;;;4879884;28;90420;-35
2022/05/02 05:35:07;;;;;;;26.48;22.98;;;6.90;99.90;;;;;;4880684;28;90381;-34
2022/05/02 05:38:00;;;;;;;25.10;22.43;;;6.90;99.90;;;;;;4879099;28;88521;-34
2022/05/02 05:40:37;;;;;;;25.15;21.85;;;7.00;99.90;;;;;;4881702;28;90585;-33
2022/05/02 05:43:26;;;;;;;23.87;21.47;;;7.10;99.90;;;;;;4881168;28;89632;-33
2022/05/02 05:46:23;;;;;;;25.58;22.23;;;6.80;99.90;;;;;;4879873;28;89588;-36
2022/05/02 05:48:58;;;;;;;27.27;23.13;;;6.70;99.90;;;;;;4880456;28;88708;-36
2022/05/02 05:51:34;;;;;;;29.38;20.90;;;6.70;99.90;;;;;;4880543;28;90486;-36
2022/05/02 05:54:21;;;;;;;25.45;22.17;;;6.50;99.90;;;;;;4880814;28;89626;-35
2022/05/02 05:57:14;;;;;;;25.67;21.85;;;6.30;99.90;;;;;;4881544;28;88931;-34
2022/05/02 06:00:04;;;;;;;27.63;22.02;;;6.50;99.90;;;;;;4880463;28;90293;-36
2022/05/02 06:03:01;;;;;;;22.75;20.35;;;6.40;99.90;;;;;;4880747;28;90517;-36
2022/05/02 06:05:28;;;;;;;26.65;21.77;;;6.30;99.90;;;;;;4881501;28;89447;-34
2022/05/02 06:07:55;;;;;;;29.35;21.58;;;6.50;99.90;;;;;;4880738;28;89988;-33
2022/05/02 06:10:24;;;;;;;24.10;21.50;;;6.60;99.90;;;;;;4881386;28;89234;-38
2022/05/02 06:12:50;;;;;;;26.35;22.02;;;6.70;99.90;;;;;;4878750;28;89315;-34
2022/05/02 06:20:51;;;;;;;29.25;23.67;;;6.90;99.90;;;;;;4882918;28;89325;-33
2022/05/02 06:23:17;;;;;;;25.92;22.95;;;7.10;99.90;;;;;;4882050;28;90330;-36
2022/05/02 06:25:48;;;;;;;25.17;22.58;;;7.20;99.90;;;;;;4881268;28;90705;-36
2022/05/02 06:28:15;;;;;;;28.35;22.77;;;7.40;99.90;;;;;;4882660;28;90923;-32
2022/05/02 06:30:43;;;;;;;28.60;25.70;;;7.50;99.90;;;;;;4882644;28;88988;-34
2022/05/02 06:33:14;;;;;;;28.07;24.57;;;7.60;99.90;;;;;;4881844;28;89599;-34
2022/05/02 06:36:08;;;;;;;29.13;23.63;;;7.70;99.90;;;;;;4881611;28;89971;-34
2022/05/02 06:38:48;;;;;;;28.00;21.58;;;7.90;99.90;;;;;;4852425;28;89945;-34
2022/05/02 06:41:35;;;;;;;27.27;22.13;;;8.10;99.90;;;;;;4862965;28;89508;-38
2022/05/02 06:44:20;;;;;;;29.55;23.17;;;8.30;99.90;;;;;;4863326;28;90254;-35
2022/05/02 06:47:20;;;;;;;32.50;24.80;;;8.60;99.90;;;;;;4862826;28;90377;-32
2022/05/02 06:49:51;;;;;;;24.73;22.05;;;8.80;99.90;;;;;;4862957;28;89174;-34
2022/05/02 06:52:24;;;;;;;21.77;19.45;;;9.30;99.90;;;;;;4862653;28;88941;-33
2022/05/02 06:55:35;;;;;;;25.67;20.67;;;9.60;99.90;;;;;;4862372;28;89613;-36
2022/05/02 06:58:12;;;;;;;26.17;20.67;;;9.90;99.90;;;;;;4822175;29;89847;-33
2022/05/02 07:00:47;;;;;;;23.33;20.87;;;10.10;99.90;;;;;;4857356;28;89545;-32
2022/05/02 07:03:37;;;;;;;20.70;18.63;;;10.40;99.90;;;;;;4862598;28;88829;-34
2022/05/02 07:06:14;;;;;;;25.33;18.33;;;10.70;99.90;;;;;;4862274;28;89481;-32
2022/05/02 07:08:59;;;;;;;21.73;19.37;;;10.90;99.90;;;;;;4862359;28;89790;-35
2022/05/02 07:11:43;;;;;;;23.15;19.95;;;11.10;99.90;;;;;;4862731;28;89765;-34
2022/05/02 07:14:26;;;;;;;18.98;17.00;;;11.30;99.90;;;;;;4862371;28;88938;-35
2022/05/02 07:16:56;;;;;;;20.90;18.33;;;11.10;99.90;;;;;;4862723;28;90396;-34
2022/05/02 07:19:48;;;;;;;23.25;17.42;;;11.20;99.90;;;;;;4862039;28;91093;-35
2022/05/02 07:22:28;;;;;;;24.00;18.17;;;11.50;99.90;;;;;;4862505;28;89119;-34
2022/05/02 07:25:11;;;;;;;19.73;17.80;;;11.90;99.90;;;;;;4861801;28;88960;-35
2022/05/02 07:27:57;;;;;;;28.27;16.85;;;12.10;99.90;;;;;;4862554;28;90394;-34
2022/05/02 07:30:24;;;;;;;19.13;17.30;;;12.30;99.90;;;;;;4861964;28;89460;-37
2022/05/02 07:32:53;;;;;;;20.05;14.80;;;12.00;99.90;;;;;;4862173;28;89745;-35
2022/05/02 07:35:18;;;;;;;20.70;15.98;;;11.90;99.90;;;;;;4862638;28;88407;-35
2022/05/02 07:37:45;;;;;;;20.08;15.10;;;12.10;99.90;;;;;;4871741;28;89242;-36
2022/05/02 07:40:13;;;;;;;17.48;15.63;;;12.60;99.90;;;;;;4880544;28;88834;-33
2022/05/02 07:42:40;;;;;;;17.38;14.95;;;12.80;99.90;;;;;;4881486;28;90157;-36
2022/05/02 07:45:10;;;;;;;17.65;14.40;;;12.40;99.90;;;;;;4881197;28;90071;-35
2022/05/02 07:47:36;;;;;;;18.92;15.68;;;12.60;99.90;;;;;;4880578;28;90740;-34
2022/05/02 07:50:04;;;;;;;14.60;13.10;;;12.60;99.90;;;;;;4880879;28;89597;-33
2022/05/02 07:52:30;;;;;;;16.08;14.48;;;13.10;99.90;;;;;;4880610;28;90381;-35
2022/05/02 07:54:58;;;;;;;15.70;14.05;;;13.40;99.90;;;;;;4881226;28;88808;-33
2022/05/02 07:57:26;;;;;;;14.82;13.00;;;13.00;99.90;;;;;;4881573;28;90445;-34
2022/05/02 07:59:55;;;;;;;15.07;12.32;;;13.00;99.90;;;;;;4881115;28;89682;-33
2022/05/02 08:02:22;;;;;;;15.38;13.77;;;13.40;99.90;;;;;;4881759;28;90713;-35
2022/05/02 08:04:47;;;;;;;19.40;14.15;;;13.80;99.90;;;;;;4880514;28;89773;-34
2022/05/02 08:07:15;;;;;;;12.93;11.63;;;14.10;99.90;;;;;;4880142;28;90115;-34
2022/05/02 08:10:11;;;;;;;14.68;13.25;;;14.20;99.90;;;;;;4879566;28;90622;-35
2022/05/02 08:12:51;;;;;;;17.05;15.40;;;13.60;99.90;;;;;;4880343;28;90635;-34
2022/05/02 08:15:37;;;;;;;13.75;12.45;;;14.00;99.90;;;;;;4881109;28;89595;-33
2022/05/02 08:18:22;;;;;;;14.38;10.43;;;14.00;99.90;;;;;;4879946;28;91431;-34
2022/05/02 08:20:55;;;;;;;18.05;11.57;;;14.10;99.90;;;;;;4880853;28;90499;-34
2022/05/02 08:29:57;;;;;;;15.07;12.20;;;14.70;99.70;;;;;;4870438;28;90472;-34
2022/05/02 08:32:51;;;;;;;12.37;11.10;;;14.90;99.90;;;;;;4880258;28;89845;-35
2022/05/02 08:35:36;;;;;;;11.82;10.57;;;14.90;93.50;;;;;;4866968;28;89804;-36
2022/05/02 08:38:24;;;;;;;15.00;12.18;;;14.80;99.00;;;;;;4898637;28;89456;-34
2022/05/02 08:41:10;;;;;;;16.05;10.27;;;15.10;99.90;;;;;;4899386;28;90287;-33
2022/05/02 08:44:12;;;;;;;14.75;11.85;;;15.10;98.20;;;;;;4898575;28;89986;-35
2022/05/02 08:47:19;;;;;;;17.13;11.65;;;15.00;96.10;;;;;;4899599;28;89736;-34
2022/05/02 08:50:06;;;;;;;12.30;10.87;;;15.10;90.80;;;;;;4899299;28;88126;-33
2022/05/02 08:53:02;;;;;;;11.75;10.05;;;15.10;85.90;;;;;;4899244;28;90153;-34
2022/05/02 08:55:33;;;;;;;14.40;10.60;;;15.30;93.20;;;;;;4899084;28;90600;-35
2022/05/02 08:58:28;;;;;;;14.25;10.50;;;15.20;89.90;;;;;;4899725;28;90272;-36
2022/05/02 09:01:06;;;;;;;11.82;10.18;;;15.40;85.70;;;;;;4898729;28;90533;-35
2022/05/02 09:04:25;;;;;;;11.35;10.02;;;15.60;81.40;;;;;;4898708;28;90201;-34
2022/05/02 09:07:13;;;;;;;12.85;10.18;;;15.80;94.00;;;;;;4897827;28;92393;-36
2022/05/02 09:10:23;;;;;;;11.50;10.43;;;16.00;80.00;;;;;;4898684;28;90406;-38
2022/05/02 09:13:21;;;;;;;16.80;9.98;;;16.20;72.80;;;;;;4898900;28;89929;-34
2022/05/02 09:16:25;;;;;;;13.00;9.80;;;15.80;64.90;;;;;;4898539;28;90309;-38
2022/05/02 09:19:42;;;;;;;14.40;8.18;;;16.00;74.80;;;;;;4899199;28;89406;-35
2022/05/02 09:22:39;;;;;;;11.57;8.95;;;15.80;66.60;;;;;;4821137;29;90047;-33
2022/05/02 09:25:04;;;;;;;10.00;9.00;;;15.80;68.80;;;;;;4821338;29;88621;-34
2022/05/02 09:27:57;;;;;;;10.23;8.57;;;16.20;64.20;;;;;;4873151;28;90169;-33
2022/05/02 09:30:47;;;;;;;12.75;10.68;;;15.80;63.40;;;;;;4899620;28;90119;-36
2022/05/02 09:33:27;;;;;;;10.73;9.63;;;16.00;64.90;;;;;;4898977;28;89049;-35
2022/05/02 09:35:58;;;;;;;10.85;9.85;;;16.10;65.20;;;;;;4898921;28;90633;-32
2022/05/02 09:38:26;;;;;;;11.30;9.57;;;16.10;64.70;;;;;;4899285;28;91213;-39
2022/05/02 09:41:24;;;;;;;14.52;9.52;;;16.00;64.30;;;;;;4899668;28;89460;-35
2022/05/02 09:50:32;;;;;;;13.30;9.90;;;15.90;65.50;;;;;;4898811;28;90656;-35
2022/05/02 09:53:07;;;;;;;11.77;9.40;;;16.30;71.40;;;;;;4898909;28;89777;-35
2022/05/02 09:58:53;;;;;;;11.88;9.40;;;17.30;64.50;;;;;;4902730;28;87718;-37
2022/05/02 10:01:26;;;;;;;13.95;8.70;;;17.00;57.80;;;;;;4902161;28;89408;-38
2022/05/02 10:04:01;;;;;;;10.93;8.60;;;17.20;65.40;;;;;;4883762;28;89803;-36
2022/05/02 10:06:44;;;;;;;12.07;9.68;;;16.80;58.20;;;;;;4902497;28;88980;-38
2022/05/02 10:09:43;;;;;;;10.45;9.45;;;16.40;60.00;;;;;;4902395;28;88041;-36
2022/05/02 10:12:30;;;;;;;10.63;9.55;;;16.30;59.00;;;;;;4902456;28;91378;-34
2022/05/02 10:15:20;;;;;;;11.27;10.18;;;16.50;58.30;;;;;;4901444;28;90487;-35
2022/05/02 10:18:12;;;;;;;12.32;9.52;;;16.60;62.70;;;;;;4901563;28;88758;-33
2022/05/02 10:21:07;;;;;;;10.23;9.23;;;17.20;75.40;;;;;;4902962;28;87784;-34
2022/05/02 10:24:07;;;;;;;10.40;9.35;;;16.80;61.50;;;;;;4902610;28;89941;-38
2022/05/02 10:26:48;;;;;;;13.15;11.02;;;16.70;59.30;;;;;;4902154;28;89975;-38
2022/05/02 10:29:33;;;;;;;10.07;9.18;;;16.80;58.20;;;;;;4901006;28;89000;-34
2022/05/02 10:32:38;;;;;;;12.40;9.77;;;16.70;58.40;;;;;;4901593;28;89238;-33
2022/05/02 10:35:11;;;;;;;10.38;9.40;;;17.00;58.70;;;;;;4901082;28;90026;-34
2022/05/02 10:37:39;;;;;;;13.70;7.78;;;17.10;59.40;;;;;;4901188;28;89655;-34
2022/05/02 10:40:08;;;;;;;;;;;17.10;63.00;;;;;;4903037;28;89538;-36
2022/05/02 10:42:34;;;;;;;13.13;10.02;;;17.10;61.00;;;;;;4903713;28;89402;-34
2022/05/02 10:45:09;;;;;;;11.90;10.75;;;17.10;58.40;;;;;;4901483;28;90239;-37
2022/05/02 10:48:18;;;;;;;10.68;8.57;;;17.00;57.50;;;;;;4901511;28;90060;-38
2022/05/02 10:51:01;;;;;;;17.33;10.07;;;16.50;57.80;;;;;;4901469;28;89604;-33
2022/05/02 10:54:08;;;;;;;9.85;8.85;;;16.70;59.00;;;;;;4901351;28;89649;-34
2022/05/02 10:56:45;;;;;;;17.13;10.50;;;17.00;56.50;;;;;;4863473;28;89110;-34
2022/05/02 10:59:13;;;;;;;9.50;8.60;;;17.40;62.50;;;;;;4900122;28;90482;-36
2022/05/02 11:02:04;;;;;;;9.88;8.85;;;17.80;56.20;;;;;;4901362;28;89980;-36
2022/05/02 11:04:32;;;;;;;11.15;8.88;;;17.60;56.00;;;;;;4900678;28;89081;-36
2022/05/02 11:07:07;;;;;;;16.17;9.52;;;17.50;57.90;;;;;;4900718;28;90485;-35
2022/05/02 11:09:40;;;;;;;10.70;9.60;;;17.60;54.80;;;;;;4884898;28;89551;-34
2022/05/02 11:12:10;;;;;;;51.53;13.63;;;17.50;56.70;;;;;;4900822;28;88575;-35
2022/05/02 11:14:52;;;;;;;11.55;10.35;;;17.70;57.90;;;;;;4900103;28;87486;-37
2022/05/02 11:17:47;;;;;;;15.45;8.77;;;17.90;56.90;;;;;;4898657;28;90422;-34
2022/05/02 11:20:42;;;;;;;10.82;9.63;;;17.70;57.90;;;;;;4899204;28;90259;-37
2022/05/02 11:23:32;;;;;;;12.13;8.43;;;17.20;55.10;;;;;;4899899;28;89582;-38
2022/05/02 11:26:07;;;;;;;12.27;11.07;;;17.50;58.50;;;;;;4898430;28;89269;-33
2022/05/02 11:29:10;;;;;;;14.95;9.90;;;17.30;58.60;;;;;;4880294;28;90415;-34
2022/05/02 11:31:47;;;;;;;11.52;10.32;;;17.00;58.40;;;;;;4898113;28;89286;-37
2022/05/02 11:34:43;;;;;;;11.35;9.18;;;17.10;57.80;;;;;;4898779;28;89680;-33
2022/05/02 11:37:19;;;;;;;11.23;10.13;;;16.90;58.50;;;;;;4894702;28;88894;-35
2022/05/02 11:39:59;;;;;;;15.18;9.70;;;17.40;56.00;;;;;;4899729;28;90235;-35
2022/05/02 11:42:28;;;;;;;15.00;10.18;;;17.30;57.60;;;;;;4901172;28;89975;-35
2022/05/02 11:45:11;;;;;;;10.70;9.50;;;17.10;57.40;;;;;;4900927;28;90005;-33
2022/05/02 11:47:39;;;;;;;10.48;9.05;;;17.20;56.80;;;;;;4900191;28;89260;-35
2022/05/02 11:50:06;;;;;;;;;;;17.10;56.90;;;;;;4900889;28;90232;-34
2022/05/02 11:52:37;;;;;;;11.27;9.20;;;17.30;54.70;;;;;;4901712;28;90670;-34
2022/05/02 11:55:07;;;;;;;11.35;9.98;;;17.50;55.60;;;;;;4901594;28;89173;-34
2022/05/02 11:57:40;;;;;;;10.40;8.68;;;17.50;54.60;;;;;;4900757;28;88324;-35
2022/05/02 12:00:06;;;;;;;10.20;8.77;;;17.90;57.00;;;;;;4900669;28;90172;-36
2022/05/02 12:02:48;;;;;;;13.50;9.38;;;17.90;55.10;;;;;;4900860;28;89350;-35
2022/05/02 12:05:27;;;;;;;11.13;9.65;;;17.70;55.40;;;;;;4900480;28;89933;-33
2022/05/02 12:08:04;;;;;;;9.85;8.30;;;17.50;57.40;;;;;;4900195;28;87969;-34
2022/05/02 12:10:41;;;;;;;10.52;9.45;;;17.60;55.60;;;;;;4901357;28;91694;-37
2022/05/02 12:13:12;;;;;;;11.43;8.05;;;17.20;53.60;;;;;;4900389;28;90020;-36
2022/05/02 12:15:57;;;;;;;8.57;7.75;;;17.20;54.60;;;;;;4900147;28;89637;-37
2022/05/02 12:18:37;;;;;;;10.13;9.07;;;17.90;54.80;;;;;;4900018;28;88070;-35
2022/05/02 12:21:05;;;;;;;9.40;8.35;;;17.60;51.20;;;;;;4901196;28;90001;-36
2022/05/02 12:23:34;;;;;;;10.05;9.00;;;17.40;52.70;;;;;;4900540;28;89837;-35
2022/05/02 12:26:04;;;;;;;8.65;7.85;;;17.40;56.00;;;;;;4900054;28;91070;-36
2022/05/02 12:28:41;;;;;;;9.63;8.73;;;17.20;52.30;;;;;;4900863;28;88130;-34
2022/05/02 12:31:08;;;;;;;9.33;8.43;;;16.90;52.10;;;;;;4900291;28;90200;-37
2022/05/02 12:33:40;;;;;;;10.30;7.72;;;17.10;52.50;;;;;;4900148;28;89710;-35
2022/05/02 12:36:20;;;;;;;13.18;8.27;;;16.80;52.50;;;;;;4899514;28;90004;-33
2022/05/02 12:39:09;;;;;;;10.13;8.15;;;16.90;53.10;;;;;;5014376;22;90051;-34
2022/05/02 12:41:45;;;;;;;12.82;6.47;;;16.80;51.90;;;;;;4977668;28;90313;-39
2022/05/02 12:44:13;;;;;;;10.27;7.55;;;16.90;52.50;;;;;;4977586;28;90151;-34
2022/05/02 12:46:44;;;;;;;9.07;8.15;;;17.20;50.80;;;;;;4978271;28;90685;-38
2022/05/02 12:49:28;;;;;;;16.10;8.00;;;17.30;53.30;;;;;;4977381;28;89829;-38
2022/05/02 12:51:56;;;;;;;10.60;7.10;;;17.60;50.40;;;;;;4977952;28;90273;-37
2022/05/02 12:54:26;;;;;;;6.35;5.78;;;17.70;50.90;;;;;;4977928;28;89561;-36
2022/05/02 13:03:12;;;;;;;9.13;7.55;;;17.40;48.60;;;;;;4978391;28;90355;-34
2022/05/02 13:05:40;;;;;;;10.70;8.17;;;17.30;52.00;;;;;;4978603;28;89090;-34
2022/05/02 13:08:13;;;;;;;8.95;7.47;;;17.00;50.60;;;;;;4977637;28;89219;-35
2022/05/02 13:10:41;;;;;;;8.63;7.68;;;17.10;53.10;;;;;;4977835;28;89460;-37
2022/05/02 13:13:10;;;;;;;10.80;7.75;;;17.30;52.80;;;;;;4977841;28;90204;-35
2022/05/02 13:15:47;;;;;;;8.70;7.72;;;17.30;52.50;;;;;;4977703;28;89968;-36
2022/05/02 13:18:18;;;;;;;10.47;8.17;;;17.30;52.90;;;;;;4977833;28;90453;-35
2022/05/02 13:21:01;;;;;;;8.50;6.38;;;17.60;53.60;;;;;;4978333;28;89589;-35
2022/05/02 13:23:37;;;;;;;15.15;7.68;;;17.60;53.10;;;;;;4977215;28;90076;-38
2022/05/02 13:26:18;;;;;;;8.27;7.03;;;17.60;53.90;;;;;;4977676;28;89854;-36
2022/05/02 13:29:07;;;;;;;8.38;5.70;;;17.50;53.60;;;;;;4976542;28;89286;-35
2022/05/02 13:31:39;;;;;;;11.88;6.72;;;17.60;52.60;;;;;;4977886;28;89244;-36
2022/05/02 13:34:06;;;;;;;8.50;6.30;;;17.50;52.90;;;;;;4975806;28;90224;-35
2022/05/02 13:36:41;;;;;;;7.80;6.43;;;17.70;52.20;;;;;;4977053;28;91186;-35
2022/05/02 13:39:15;;;;;;;7.05;6.22;;;17.60;53.00;;;;;;4977399;28;91641;-37
2022/05/02 13:41:49;;;;;;;7.82;6.18;;;17.50;53.40;;;;;;4977589;28;89613;-35
2022/05/02 13:44:29;;;;;;;7.90;6.90;;;17.40;53.50;;;;;;4978003;28;90192;-38
2022/05/02 13:47:10;;;;;;;8.40;6.57;;;17.40;52.10;;;;;;4977031;28;90253;-35
2022/05/02 13:50:05;;;;;;;6.93;6.25;;;17.40;53.70;;;;;;4977301;28;89523;-35